• Join FlightAware (Why Join?)
  • Login
  • US Flag 
10:59PM EDT


 

Airport Tracker/Info


-or-


 

Live Flight TrackerFlight Track Log ✈ N6197D ✈ 05-May-2012 ✈ KOMA - KFSD

Flight Track Log - Related Links

Times and Time Zones

All times are in EDT time to prevent confusion due to time zone crossing. See the N6197D flight status page for this flight to view local times or setup timezone preferences in your user account.

Time Position Orientation Groundspeed Altitude Reporting Facility
EDT Latitude Longitude Course Direction KTS MPH feet Rate Location/Type
05:25PM 41.2931 -95.8992 82° East 141 162 1,600  Level Minneapolis Center
05:26PM 41.2983 -95.8497 34° Northeast 219 252 4,200 1,980 Climbing Minneapolis Center
05:27PM 41.3281 -95.8233 10° North 222 255 5,200 1,920 Climbing Minneapolis Center
05:28PM 41.3908 -95.8092 North 222 255 7,500 2,340 Climbing Minneapolis Center
05:29PM 41.4597 -95.8006 31° Northeast 228 262 9,900 2,160 Climbing Minneapolis Center
05:30PM 41.5147 -95.7558 24° Northeast 228 262 11,800 1,920 Climbing Minneapolis Center
05:31PM 41.5758 -95.7192 North 223 257 13,800 1,980 Climbing Minneapolis Center
05:32PM 41.6406 -95.7106 343° North 229 264 15,800 1,980 Climbing Minneapolis Center
05:33PM 41.7003 -95.7350 339° North 220 253 17,800 1,800 Climbing Minneapolis Center
05:34PM 41.7581 -95.7647 340° North 220 253 19,500 1,080 Climbing Minneapolis Center
05:35PM 41.8261 -95.7981 338° Northwest 236 272 20,000 240 Climbing Minneapolis Center
05:36PM 41.9042 -95.8400 339° North 267 307 20,000  Level Minneapolis Center
05:37PM 41.9844 -95.8822 338° Northwest 295 339 20,000  Level Minneapolis Center
05:38PM 42.0689 -95.9275 339° North 312 359 20,000  Level Minneapolis Center
05:39PM 42.1489 -95.9700 339° North 317 365 20,000  Level Minneapolis Center
05:40PM 42.2314 -96.0125 336° Northwest 317 365 20,000  Level Minneapolis Center
05:41PM 42.3133 -96.0611 342° North 317 365 20,000  Level Minneapolis Center
05:42PM 42.3958 -96.0983 338° Northwest 317 365 20,000  Level Minneapolis Center
05:43PM 42.4800 -96.1442 339° North 312 359 20,000  Level Minneapolis Center
05:44PM 42.5622 -96.1872 338° Northwest 317 365 20,000  Level Minneapolis Center
05:45PM 42.6444 -96.2333 341° North 317 365 20,000  Level Minneapolis Center
05:46PM 42.7289 -96.2739 338° Northwest 317 365 20,000  Level Minneapolis Center
05:47PM 42.8131 -96.3203 338° Northwest 317 365 20,000 -420 Level Minneapolis Center
05:48PM 42.8931 -96.3639 339° North 317 365 19,200 -1,500 Descending Minneapolis Center
05:49PM 42.9692 -96.4044 336° Northwest 311 358 17,000 -2,040 Descending Minneapolis Center
05:50PM 43.0367 -96.4447 339° North 299 344 15,200 -2,100 Descending Minneapolis Center
05:51PM 43.1147 -96.4856 340° North 294 338 12,900 -2,280 Descending Minneapolis Center
05:52PM 43.1908 -96.5236 313° West 289 333 10,700 -1,980 Descending Minneapolis Center
05:53PM 43.2428 -96.6006 310° West 277 319 9,000 -1,620 Descending Minneapolis Center
05:54PM 43.2925 -96.6828 307° West 277 319 7,500 -1,620 Descending Minneapolis Center
05:55PM 43.3400 -96.7683 309° West 278 320 5,800 -2,100 Descending Minneapolis Center
05:56PM 43.3894 -96.8539 342° North 277 319 3,400 -1,200 Descending Minneapolis Center
05:57PM 43.4469 -96.8800 37° Northeast 241 277 3,400  Level Minneapolis Center
05:58PM 43.4942 -96.8314 35° Northeast 187 215 3,400 -420 Level Minneapolis Center
05:59PM 43.5244 -96.8017 37° Northeast 152 175 2,600 -720 Descending Minneapolis Center
06:00PM 43.5481 -96.7772 32° Northeast 125 144 2,000 -360 Descending Minneapolis Center
06:01PM 43.5758 -96.7531 32° Northeast 125 144 1,900 -120 Descending Minneapolis Center